Pagrindinis puslapis
METAR-TAF:

METAR-TAF

Oro uostai :

Šo de Fonas, Šveicarija

platuma: 47-05-03N, ilguma: 006-47-37E, Aukštis: 1027 m

Dabartinis oras

Ataskaita buvo paskelbta 11 minutes, ne 02:50 UTC
Vėjas 4 kt iš Pietvakarių, svyruoja nuo Pietų ir Vakarų
Temperatūra 0°C
Drėgmė 100%
Slėgis 1025 hPa
Matomumas: 4600 m
Išsisklaidę debesys ne aukštis 1000 ft
Su prošvaistėmis ne aukštis 1200 ft
Su prošvaistėmis ne aukštis 1400 ft
sniegas

METAR: LSGC 180250Z AUTO 22004KT 190V260 4600 -SN SCT010 BKN012 BKN014 00/M00 Q1025

Laikas: 04:01 (03:01 UTC)

Prognozė

Ataskaita buvo paskelbta 12 valandos ir 36 minutes, ne 14:25 UTC
Prognozė galioja nuo 17 metu 15 UTC su 17 metu 24 UTC
Vėjas 5 kt iš Vakarų/Pietvakarių
Matomumas 10 km arba daugiau
Su prošvaistėmis ne aukštis 800 ft
lietus
Tapsmas
nuo 17 metu 17 UTC su 17 metu 19 UTC
Su prošvaistėmis ne aukštis 2500 ft

TAF: LSGC 171425Z 1715/1724 24005KT 9999 -RA BKN008 BECMG 1717/1719 BKN025

Orai ataskaitas ir orų prognozės (METAR, TAF).

turimą stotys yra geltonos ir raudonos taškus žemėlapyje.

Perkelti pele per norėdami pamatyti stoties vardą.

Tada spustelėkite, norėdami matyti oro stebėjimo ir prognozės.

Norėdami pakeisti žemėlapį: spustelėkite ant žalios mygtukų su juodo kryžiaus žemyn,; žalią mygtuką su brūkšneliu, jei norite nutolinti; arba žalių rodyklių gretimoms žemėlapius.


METAR-TAF: